| time (UTC) | temp F | wind direction | speed MPH | gust MPH | rain 1hr in | rain 24hr in | rain mn in | humidity % | barometer mb |
| 20260510132516 | 53 | 260 | 9.0 | 13.0 | 0.00 | 0.00 | 0.00 | 60 | 1011.1 |
| 20260510131523 | 55 | 286 | 11.0 | 17.0 | 0.00 | 0.00 | 0.00 | 55 | 1011.1 |
| 20260510130523 | 57 | 262 | 11.0 | 12.0 | 0.00 | 0.00 | 0.00 | 52 | 1011.1 |
| 20260510125520 | 58 | 278 | 13.0 | 15.0 | 0.00 | 0.00 | 0.00 | 51 | 1011.1 |
| 20260510124523 | 61 | 280 | 12.0 | 13.0 | 0.00 | 0.00 | 0.00 | 51 | 1011.1 |
| 20260510123527 | 63 | 293 | 10.0 | 13.0 | 0.00 | 0.00 | 0.00 | 50 | 1011.1 |
| 20260510122524 | 62 | 266 | 12.0 | 13.0 | 0.00 | 0.00 | 0.00 | 51 | 1011.1 |
| 20260510121524 | 62 | 269 | 14.0 | 15.0 | 0.00 | 0.00 | 0.00 | 51 | 1011.1 |
| 20260510120524 | 62 | 273 | 13.0 | 16.0 | 0.00 | 0.00 | 0.00 | 52 | 1011.1 |
| 20260510115519 | 58 | 254 | 11.0 | 17.0 | 0.00 | 0.00 | 0.00 | 52 | 1011.6 |
| 20260510114524 | 60 | 261 | 13.0 | 15.0 | 0.00 | 0.00 | 0.00 | 53 | 1012.1 |
| 20260510113524 | 58 | 275 | 9.0 | 12.0 | 0.00 | 0.00 | 0.00 | 55 | 1012.1 |
| 20260510112524 | 58 | 258 | 10.0 | 13.0 | 0.00 | 0.00 | 0.00 | 56 | 1012.1 |
| 20260510111524 | 57 | 288 | 10.0 | 11.0 | 0.00 | 0.00 | 0.00 | 56 | 1012.1 |
| 20260510110524 | 57 | 275 | 11.0 | 12.0 | 0.00 | 0.00 | 0.00 | 56 | 1012.1 |
| 20260510105547 | 57 | 280 | 9.0 | 11.0 | 0.00 | 0.00 | 0.00 | 55 | 1012.1 |
| 20260510104523 | 58 | 258 | 15.0 | 15.0 | 0.00 | 0.00 | 0.00 | 54 | 1012.1 |
| 20260510103537 | 58 | 282 | 13.0 | 17.0 | 0.00 | 0.00 | 0.00 | 54 | 1012.1 |
| 20260510102524 | 57 | 290 | 12.0 | 15.0 | 0.00 | 0.00 | 0.00 | 55 | 1012.1 |
| 20260510101521 | 58 | 245 | 13.0 | 15.0 | 0.00 | 0.00 | 0.00 | 56 | 1012.1 |
| 20260510100526 | 58 | 248 | 10.0 | 11.0 | 0.00 | 0.00 | 0.00 | 56 | 1012.1 |
| 20260510095523 | 57 | 265 | 9.0 | 13.0 | 0.00 | 0.00 | 0.00 | 54 | 1012.1 |
| 20260510094519 | 58 | 237 | 12.0 | 15.0 | 0.00 | 0.00 | 0.00 | 54 | 1012.1 |
| 20260510093523 | 58 | 244 | 14.0 | 19.0 | 0.00 | 0.00 | 0.00 | 55 | 1012.1 |
| 20260510092524 | 58 | 258 | 11.0 | 18.0 | 0.00 | 0.00 | 0.00 | 56 | 1012.1 |
| 20260510091524 | 57 | 248 | 11.0 | 13.0 | 0.00 | 0.00 | 0.00 | 59 | 1012.1 |
| 20260510090523 | 56 | 269 | 15.0 | 17.0 | 0.00 | 0.00 | 0.00 | 59 | 1012.1 |
| 20260510085523 | 57 | 257 | 9.0 | 13.0 | 0.00 | 0.00 | 0.00 | 58 | 1012.6 |
| 20260510084516 | 57 | 248 | 11.0 | 11.0 | 0.00 | 0.00 | 0.00 | 57 | 1013.1 |
| 20260510083524 | 58 | 251 | 6.0 | 11.0 | 0.00 | 0.00 | 0.00 | 57 | 1013.1 |
| 20260510082519 | 58 | 243 | 3.0 | 5.0 | 0.00 | 0.00 | 0.00 | 58 | 1013.1 |
| 20260510081524 | 58 | 248 | 4.0 | 6.0 | 0.00 | 0.00 | 0.00 | 60 | 1013.1 |
| 20260510080515 | 55 | 260 | 6.0 | 7.0 | 0.00 | 0.00 | 0.00 | 62 | 1013.1 |
| 20260510075604 | 55 | 227 | 5.0 | 9.0 | 0.00 | 0.00 | 0.00 | 63 | 1013.1 |
| 20260510074543 | 54 | 198 | 2.0 | 3.0 | 0.00 | 0.00 | 0.00 | 66 | 1013.1 |
| 20260510073523 | 54 | 252 | 5.0 | 9.0 | 0.00 | 0.00 | 0.00 | 68 | 1014.1 |
| 20260510072603 | 54 | 253 | 4.0 | 6.0 | 0.00 | 0.00 | 0.00 | 73 | 1014.1 |
| 20260510071523 | 52 | 221 | 3.0 | 5.0 | 0.00 | 0.00 | 0.00 | 74 | 1014.1 |
| 20260510070524 | 50 | 225 | 1.0 | 4.0 | 0.00 | 0.00 | 0.00 | 75 | 1014.1 |
| 20260510065524 | 48 | 270 | 1.0 | 2.0 | 0.00 | 0.00 | 0.00 | 75 | 1014.1 |
| 20260510064523 | 48 | 293 | 1.0 | 4.0 | 0.00 | 0.00 | 0.00 | 75 | 1014.1 |
| 20260510063524 | 46 | 0.0 | 0.0 | 0.00 | 0.00 | 0.00 | 75 | 1015.1 | |
| 20260510062529 | 44 | 0.0 | 0.0 | 0.00 | 0.00 | 0.00 | 75 | 1015.1 | |
| 20260510061526 | 44 | 0.0 | 0.0 | 0.00 | 0.00 | 0.00 | 76 | 1015.1 | |
| 20260510060606 | 44 | 0.0 | 0.0 | 0.00 | 0.00 | 0.00 | 76 | 1015.1 | |
| 20260510055523 | 43 | 0.0 | 0.0 | 0.00 | 0.00 | 0.00 | 76 | 1015.1 | |
| 20260510054543 | 43 | 0.0 | 0.0 | 0.00 | 0.00 | 0.00 | 76 | 1015.1 | |
| 20260510053520 | 42 | 0.0 | 0.0 | 0.00 | 0.00 | 0.00 | 76 | 1015.1 | |
| 20260510052525 | 41 | 0.0 | 0.0 | 0.00 | 0.00 | 0.00 | 75 | 1015.1 | |
| 20260510051524 | 40 | 0.0 | 0.0 | 0.00 | 0.00 | 0.00 | 75 | 1015.1 | |
| 20260510050519 | 39 | 0.0 | 0.0 | 0.00 | 0.00 | 0.00 | 74 | 1015.1 | |
| 20260510045523 | 38 | 0.0 | 0.0 | 0.00 | 0.00 | 0.00 | 74 | 1015.6 | |
| 20260510044520 | 37 | 0.0 | 0.0 | 0.00 | 0.00 | 0.00 | 74 | 1016.1 | |
| 20260510043524 | 36 | 0.0 | 0.0 | 0.00 | 0.00 | 0.00 | 73 | 1015.1 | |
| 20260510042525 | 36 | 0.0 | 0.0 | 0.00 | 0.00 | 0.00 | 73 | 1015.6 | |
| 20260510041524 | 36 | 0.0 | 0.0 | 0.00 | 0.00 | 0.00 | 73 | 1016.1 | |
| 20260510040523 | 35 | 0.0 | 0.0 | 0.00 | 0.00 | 0.00 | 72 | 1016.1 | |
| 20260510035526 | 35 | 0.0 | 0.0 | 0.00 | 0.00 | 0.00 | 70 | 1016.1 | |
| 20260510034518 | 35 | 0.0 | 0.0 | 0.00 | 0.00 | 0.00 | 71 | 1016.1 | |
| 20260510033524 | 34 | 0.0 | 0.0 | 0.00 | 0.00 | 0.00 | 71 | 1016.1 | |
| 20260510032523 | 34 | 0.0 | 0.0 | 0.00 | 0.00 | 0.00 | 70 | 1016.6 | |
| 20260510031524 | 34 | 0.0 | 0.0 | 0.00 | 0.00 | 0.00 | 70 | 1017.1 | |
| 20260510030644 | 34 | 0.0 | 0.0 | 0.00 | 0.00 | 0.00 | 69 | 1017.1 | |
| 20260510025523 | 34 | 0.0 | 0.0 | 0.00 | 0.00 | 0.00 | 70 | 1017.1 | |
| 20260510024524 | 34 | 0.0 | 0.0 | 0.00 | 0.00 | 0.00 | 69 | 1017.1 | |
| 20260510023519 | 35 | 0.0 | 0.0 | 0.00 | 0.00 | 0.00 | 69 | 1017.1 | |
| 20260510022544 | 34 | 0.0 | 0.0 | 0.00 | 0.00 | 0.00 | 68 | 1017.1 | |
| 20260510021523 | 35 | 0.0 | 0.0 | 0.00 | 0.00 | 0.00 | 69 | 1017.1 | |
| 20260510020524 | 35 | 0.0 | 0.0 | 0.00 | 0.00 | 0.00 | 68 | 1017.1 | |
| 20260510015522 | 36 | 0.0 | 0.0 | 0.00 | 0.00 | 0.00 | 68 | 1017.5 | |
| 20260510014524 | 36 | 0.0 | 0.0 | 0.00 | 0.00 | 0.00 | 67 | 1018.1 | |
| 20260510013524 | 36 | 0.0 | 0.0 | 0.00 | 0.00 | 0.00 | 65 | 1018.1 | |
| 20260510012519 | 36 | 0.0 | 0.0 | 0.00 | 0.00 | 0.00 | 67 | 1018.1 | |
| 20260510011527 | 36 | 0.0 | 0.0 | 0.00 | 0.00 | 0.00 | 67 | 1018.1 | |
| 20260510010523 | 36 | 0.0 | 0.0 | 0.00 | 0.00 | 0.00 | 66 | 1018.1 | |
| 20260510005524 | 36 | 0.0 | 0.0 | 0.00 | 0.00 | 0.00 | 65 | 1018.1 | |
| 20260510004524 | 36 | 0.0 | 0.0 | 0.00 | 0.00 | 0.00 | 66 | 1018.1 | |
| 20260510003524 | 36 | 0.0 | 0.0 | 0.00 | 0.00 | 0.00 | 65 | 1019.1 | |
| 20260510002517 | 36 | 0.0 | 0.0 | 0.00 | 0.00 | 0.00 | 64 | 1019.1 | |
| 20260510001522 | 37 | 0.0 | 0.0 | 0.00 | 0.00 | 0.00 | 64 | 1019.1 | |
| 20260510000523 | 38 | 0.0 | 0.0 | 0.00 | 0.00 | 0.00 | 63 | 1019.1 | |
| 20260509235544 | 38 | 0.0 | 0.0 | 0.00 | 0.00 | 0.00 | 62 | 1019.1 | |
| 20260509234523 | 38 | 0.0 | 0.0 | 0.00 | 0.00 | 0.00 | 63 | 1019.1 | |
| 20260509233544 | 38 | 0.0 | 0.0 | 0.00 | 0.00 | 0.00 | 62 | 1019.1 | |
| 20260509232544 | 39 | 0.0 | 0.0 | 0.00 | 0.00 | 0.00 | 62 | 1019.1 | |
| 20260509231524 | 39 | 0.0 | 0.0 | 0.00 | 0.00 | 0.00 | 61 | 1019.1 | |
| 20260509230518 | 39 | 0.0 | 0.0 | 0.00 | 0.00 | 0.00 | 61 | 1019.1 | |
| 20260509225524 | 40 | 0.0 | 0.0 | 0.00 | 0.00 | 0.00 | 60 | 1019.1 | |
| 20260509224524 | 40 | 0.0 | 0.0 | 0.00 | 0.00 | 0.00 | 61 | 1019.1 | |
| 20260509223524 | 40 | 0.0 | 0.0 | 0.00 | 0.00 | 0.00 | 60 | 1019.1 | |
| 20260509222523 | 41 | 0.0 | 0.0 | 0.00 | 0.00 | 0.00 | 60 | 1019.1 | |
| 20260509221524 | 41 | 0.0 | 0.0 | 0.00 | 0.00 | 0.00 | 59 | 1019.1 | |
| 20260509220523 | 42 | 0.0 | 0.0 | 0.00 | 0.00 | 0.00 | 58 | 1019.1 | |
| 20260509215518 | 43 | 0.0 | 0.0 | 0.00 | 0.00 | 0.00 | 57 | 1019.1 | |
| 20260509214544 | 43 | 0.0 | 0.0 | 0.00 | 0.00 | 0.00 | 56 | 1019.1 | |
| 20260509213524 | 44 | 0.0 | 0.0 | 0.00 | 0.00 | 0.00 | 56 | 1019.1 | |
| 20260509212544 | 44 | 0.0 | 0.0 | 0.00 | 0.00 | 0.00 | 56 | 1019.4 | |
| 20260509211522 | 44 | 0.0 | 0.0 | 0.00 | 0.00 | 0.00 | 55 | 1020.1 | |
| 20260509210524 | 45 | 0.0 | 0.0 | 0.00 | 0.00 | 0.00 | 54 | 1020.1 | |
| 20260509205523 | 46 | 0.0 | 0.0 | 0.00 | 0.00 | 0.00 | 52 | 1020.1 | |
| 20260509204538 | 46 | 0.0 | 0.0 | 0.00 | 0.00 | 0.00 | 52 | 1020.1 | |
| 20260509203523 | 47 | 0.0 | 0.0 | 0.00 | 0.00 | 0.00 | 52 | 1020.1 | |
| 20260509202523 | 47 | 0.0 | 0.0 | 0.00 | 0.00 | 0.00 | 51 | 1020.1 | |
| 20260509201524 | 48 | 0.0 | 0.0 | 0.00 | 0.00 | 0.00 | 50 | 1020.1 | |
| 20260509200523 | 49 | 0.0 | 0.0 | 0.00 | 0.00 | 0.00 | 48 | 1020.1 | |
| 20260509195544 | 50 | 0.0 | 0.0 | 0.00 | 0.00 | 0.00 | 47 | 1020.1 | |
| 20260509194519 | 51 | 0.0 | 0.0 | 0.00 | 0.00 | 0.00 | 45 | 1020.1 | |
| 20260509193520 | 52 | 0.0 | 0.0 | 0.00 | 0.00 | 0.00 | 44 | 1020.1 | |
| 20260509192523 | 53 | 0.0 | 0.0 | 0.00 | 0.00 | 0.00 | 42 | 1020.1 | |
| 20260509191524 | 54 | 0.0 | 0.0 | 0.00 | 0.00 | 0.00 | 41 | 1020.1 | |
| 20260509190525 | 54 | 0.0 | 0.0 | 0.00 | 0.00 | 0.00 | 41 | 1020.1 | |
| 20260509185515 | 55 | 0.0 | 0.0 | 0.00 | 0.00 | 0.00 | 38 | 1020.1 | |
| 20260509184524 | 57 | 0.0 | 0.0 | 0.00 | 0.00 | 0.00 | 35 | 1020.1 | |
| 20260509183524 | 58 | 0.0 | 0.0 | 0.00 | 0.00 | 0.00 | 35 | 1020.1 | |
| 20260509182518 | 59 | 275 | 2.0 | 6.0 | 0.00 | 0.00 | 0.00 | 35 | 1020.1 |
| 20260509181517 | 59 | 261 | 2.0 | 7.0 | 0.00 | 0.00 | 0.00 | 34 | 1020.1 |
| 20260509180523 | 60 | 267 | 5.0 | 6.0 | 0.00 | 0.00 | 0.00 | 34 | 1020.1 |
| 20260509175525 | 61 | 260 | 6.0 | 8.0 | 0.00 | 0.00 | 0.00 | 34 | 1020.1 |
| 20260509174524 | 62 | 279 | 7.0 | 9.0 | 0.00 | 0.00 | 0.00 | 33 | 1020.1 |
| 20260509173544 | 62 | 263 | 7.0 | 9.0 | 0.00 | 0.00 | 0.00 | 33 | 1020.1 |
| 20260509172524 | 63 | 266 | 7.0 | 10.0 | 0.00 | 0.00 | 0.00 | 32 | 1020.1 |
| 20260509171527 | 63 | 246 | 7.0 | 9.0 | 0.00 | 0.00 | 0.00 | 32 | 1020.1 |
| 20260509170517 | 64 | 262 | 7.0 | 9.0 | 0.00 | 0.00 | 0.00 | 32 | 1020.1 |
| 20260509165523 | 64 | 284 | 8.0 | 10.0 | 0.00 | 0.00 | 0.00 | 31 | 1020.1 |
| 20260509164525 | 66 | 276 | 7.0 | 9.0 | 0.00 | 0.00 | 0.00 | 31 | 1020.1 |
| 20260509163524 | 65 | 276 | 8.0 | 9.0 | 0.00 | 0.00 | 0.00 | 30 | 1020.1 |
| 20260509162524 | 66 | 272 | 9.0 | 10.0 | 0.00 | 0.00 | 0.00 | 30 | 1020.1 |
| 20260509161523 | 68 | 254 | 9.0 | 10.0 | 0.00 | 0.00 | 0.00 | 30 | 1020.1 |
| 20260509160518 | 69 | 247 | 10.0 | 11.0 | 0.00 | 0.00 | 0.00 | 29 | 1021.1 |
| 20260509155517 | 71 | 268 | 8.0 | 11.0 | 0.00 | 0.00 | 0.00 | 29 | 1021.1 |
| 20260509154524 | 69 | 262 | 8.0 | 10.0 | 0.00 | 0.00 | 0.00 | 29 | 1021.1 |
| 20260509153524 | 72 | 274 | 8.0 | 9.0 | 0.00 | 0.00 | 0.00 | 29 | 1021.1 |
| 20260509152524 | 70 | 290 | 8.0 | 10.0 | 0.00 | 0.00 | 0.00 | 29 | 1021.1 |
| 20260509151528 | 70 | 266 | 11.0 | 13.0 | 0.00 | 0.00 | 0.00 | 29 | 1021.1 |
| 20260509150535 | 70 | 263 | 12.0 | 15.0 | 0.00 | 0.00 | 0.00 | 29 | 1021.1 |
| 20260509145545 | 72 | 269 | 9.0 | 11.0 | 0.00 | 0.00 | 0.00 | 29 | 1021.1 |
| 20260509144523 | 73 | 281 | 9.0 | 11.0 | 0.00 | 0.00 | 0.00 | 28 | 1021.1 |
| 20260509143523 | 72 | 275 | 10.0 | 11.0 | 0.00 | 0.00 | 0.00 | 29 | 1021.1 |
| 20260509142524 | 72 | 280 | 12.0 | 13.0 | 0.00 | 0.00 | 0.00 | 29 | 1021.1 |
| 20260509141524 | 71 | 254 | 11.0 | 12.0 | 0.00 | 0.00 | 0.00 | 29 | 1021.1 |
| 20260509140524 | 73 | 267 | 10.0 | 13.0 | 0.00 | 0.00 | 0.00 | 29 | 1022.1 |
| 20260509135521 | 73 | 255 | 11.0 | 14.0 | 0.00 | 0.00 | 0.00 | 28 | 1022.1 |
| 20260509134524 | 75 | 276 | 11.0 | 13.0 | 0.00 | 0.00 | 0.00 | 28 | 1022.1 |
| 20260509133544 | 75 | 262 | 11.0 | 13.0 | 0.00 | 0.00 | 0.00 | 28 | 1022.1 |